sensor_id;sensor_type;location;lat;lon;timestamp;P1;durP1;ratioP1;P2;durP2;ratioP2
323;SDS011;149;51.094;17.002;2022-11-13T00:00:13;27.92;;;21.45;;
323;SDS011;149;51.094;17.002;2022-11-13T00:02:41;30.00;;;19.15;;
323;SDS011;149;51.094;17.002;2022-11-13T00:05:08;26.70;;;18.60;;
323;SDS011;149;51.094;17.002;2022-11-13T00:07:39;26.65;;;19.85;;
323;SDS011;149;51.094;17.002;2022-11-13T00:10:08;32.47;;;20.90;;
323;SDS011;149;51.094;17.002;2022-11-13T00:12:36;31.17;;;20.05;;
323;SDS011;149;51.094;17.002;2022-11-13T00:15:03;30.65;;;21.20;;
323;SDS011;149;51.094;17.002;2022-11-13T00:17:30;40.60;;;24.58;;
323;SDS011;149;51.094;17.002;2022-11-13T00:19:59;32.28;;;22.48;;
323;SDS011;149;51.094;17.002;2022-11-13T00:22:29;30.48;;;20.45;;
323;SDS011;149;51.094;17.002;2022-11-13T00:24:57;36.28;;;24.48;;
323;SDS011;149;51.094;17.002;2022-11-13T00:27:24;34.78;;;23.38;;
323;SDS011;149;51.094;17.002;2022-11-13T00:29:51;32.70;;;22.25;;
323;SDS011;149;51.094;17.002;2022-11-13T00:32:20;31.17;;;22.10;;
323;SDS011;149;51.094;17.002;2022-11-13T00:34:47;34.00;;;21.73;;
323;SDS011;149;51.094;17.002;2022-11-13T00:37:14;32.22;;;22.35;;
323;SDS011;149;51.094;17.002;2022-11-13T00:39:41;30.58;;;21.13;;
323;SDS011;149;51.094;17.002;2022-11-13T00:42:09;34.90;;;20.58;;
323;SDS011;149;51.094;17.002;2022-11-13T00:44:36;32.05;;;20.52;;
323;SDS011;149;51.094;17.002;2022-11-13T00:47:04;25.00;;;19.80;;
323;SDS011;149;51.094;17.002;2022-11-13T00:49:32;29.30;;;19.23;;
323;SDS011;149;51.094;17.002;2022-11-13T00:52:02;33.65;;;21.27;;
323;SDS011;149;51.094;17.002;2022-11-13T00:54:29;43.38;;;22.58;;
323;SDS011;149;51.094;17.002;2022-11-13T00:56:56;32.15;;;22.48;;
323;SDS011;149;51.094;17.002;2022-11-13T00:59:23;27.10;;;19.33;;
323;SDS011;149;51.094;17.002;2022-11-13T01:01:52;27.40;;;20.60;;
323;SDS011;149;51.094;17.002;2022-11-13T01:04:19;30.85;;;19.50;;
323;SDS011;149;51.094;17.002;2022-11-13T01:06:48;34.83;;;20.05;;
323;SDS011;149;51.094;17.002;2022-11-13T01:09:15;32.85;;;21.67;;
323;SDS011;149;51.094;17.002;2022-11-13T01:11:42;30.63;;;19.90;;
323;SDS011;149;51.094;17.002;2022-11-13T01:14:11;29.00;;;21.40;;
323;SDS011;149;51.094;17.002;2022-11-13T01:16:38;31.10;;;19.98;;
323;SDS011;149;51.094;17.002;2022-11-13T01:19:06;35.10;;;21.50;;
323;SDS011;149;51.094;17.002;2022-11-13T01:21:34;29.95;;;22.90;;
323;SDS011;149;51.094;17.002;2022-11-13T01:24:03;27.20;;;19.65;;
323;SDS011;149;51.094;17.002;2022-11-13T01:26:30;27.08;;;19.63;;
323;SDS011;149;51.094;17.002;2022-11-13T01:28:59;25.45;;;18.48;;
323;SDS011;149;51.094;17.002;2022-11-13T01:31:27;30.02;;;20.60;;
323;SDS011;149;51.094;17.002;2022-11-13T01:33:55;29.33;;;21.65;;
323;SDS011;149;51.094;17.002;2022-11-13T01:36:26;25.42;;;18.10;;
323;SDS011;149;51.094;17.002;2022-11-13T01:38:54;25.98;;;18.50;;
323;SDS011;149;51.094;17.002;2022-11-13T01:43:51;37.78;;;20.02;;
323;SDS011;149;51.094;17.002;2022-11-13T01:52:23;30.13;;;22.85;;
323;SDS011;149;51.094;17.002;2022-11-13T01:54:45;36.63;;;23.13;;
323;SDS011;149;51.094;17.002;2022-11-13T01:57:16;32.05;;;21.25;;
323;SDS011;149;51.094;17.002;2022-11-13T01:59:49;32.80;;;22.42;;
323;SDS011;149;51.094;17.002;2022-11-13T02:02:20;39.50;;;25.48;;
323;SDS011;149;51.094;17.002;2022-11-13T02:04:49;35.13;;;23.50;;
323;SDS011;149;51.094;17.002;2022-11-13T02:07:19;37.22;;;23.30;;
323;SDS011;149;51.094;17.002;2022-11-13T02:09:52;37.67;;;21.90;;
323;SDS011;149;51.094;17.002;2022-11-13T02:12:33;32.22;;;21.92;;
323;SDS011;149;51.094;17.002;2022-11-13T02:15:03;35.70;;;23.42;;
323;SDS011;149;51.094;17.002;2022-11-13T02:17:45;39.85;;;23.42;;
323;SDS011;149;51.094;17.002;2022-11-13T02:20:15;33.67;;;23.63;;
323;SDS011;149;51.094;17.002;2022-11-13T02:22:52;31.58;;;22.45;;
323;SDS011;149;51.094;17.002;2022-11-13T02:25:27;38.78;;;23.08;;
323;SDS011;149;51.094;17.002;2022-11-13T02:27:57;32.20;;;21.52;;
323;SDS011;149;51.094;17.002;2022-11-13T02:30:28;26.40;;;18.88;;
323;SDS011;149;51.094;17.002;2022-11-13T02:32:58;27.83;;;19.50;;
323;SDS011;149;51.094;17.002;2022-11-13T02:35:26;30.45;;;20.15;;
323;SDS011;149;51.094;17.002;2022-11-13T02:37:55;26.70;;;17.58;;
323;SDS011;149;51.094;17.002;2022-11-13T02:40:23;25.80;;;18.60;;
323;SDS011;149;51.094;17.002;2022-11-13T02:42:52;22.50;;;16.58;;
323;SDS011;149;51.094;17.002;2022-11-13T02:45:19;26.08;;;17.92;;
323;SDS011;149;51.094;17.002;2022-11-13T02:47:46;27.98;;;16.27;;
323;SDS011;149;51.094;17.002;2022-11-13T02:50:14;26.30;;;16.58;;
323;SDS011;149;51.094;17.002;2022-11-13T02:52:41;22.48;;;15.93;;
323;SDS011;149;51.094;17.002;2022-11-13T02:55:09;25.70;;;17.45;;
323;SDS011;149;51.094;17.002;2022-11-13T02:57:37;23.60;;;14.57;;
323;SDS011;149;51.094;17.002;2022-11-13T03:00:07;26.38;;;17.92;;
323;SDS011;149;51.094;17.002;2022-11-13T03:02:39;22.50;;;16.98;;
323;SDS011;149;51.094;17.002;2022-11-13T03:05:06;26.42;;;16.23;;
323;SDS011;149;51.094;17.002;2022-11-13T03:07:39;33.72;;;17.85;;
323;SDS011;149;51.094;17.002;2022-11-13T03:10:08;22.00;;;16.33;;
323;SDS011;149;51.094;17.002;2022-11-13T03:12:37;33.65;;;18.23;;
323;SDS011;149;51.094;17.002;2022-11-13T03:15:06;26.40;;;17.58;;
323;SDS011;149;51.094;17.002;2022-11-13T03:17:34;26.38;;;16.23;;
323;SDS011;149;51.094;17.002;2022-11-13T03:20:03;24.38;;;17.48;;
323;SDS011;149;51.094;17.002;2022-11-13T03:22:32;26.20;;;18.60;;
323;SDS011;149;51.094;17.002;2022-11-13T03:25:00;25.60;;;16.67;;
323;SDS011;149;51.094;17.002;2022-11-13T03:27:35;25.10;;;16.23;;
323;SDS011;149;51.094;17.002;2022-11-13T03:30:03;24.67;;;17.25;;
323;SDS011;149;51.094;17.002;2022-11-13T03:32:32;28.40;;;18.80;;
323;SDS011;149;51.094;17.002;2022-11-13T03:34:59;28.65;;;17.13;;
323;SDS011;149;51.094;17.002;2022-11-13T03:37:27;24.55;;;17.80;;
323;SDS011;149;51.094;17.002;2022-11-13T03:39:54;23.40;;;17.48;;
323;SDS011;149;51.094;17.002;2022-11-13T03:42:21;22.65;;;16.75;;
323;SDS011;149;51.094;17.002;2022-11-13T03:44:51;22.55;;;15.85;;
323;SDS011;149;51.094;17.002;2022-11-13T03:47:18;23.95;;;16.45;;
323;SDS011;149;51.094;17.002;2022-11-13T03:49:44;24.05;;;18.10;;
323;SDS011;149;51.094;17.002;2022-11-13T03:52:14;24.05;;;15.85;;
323;SDS011;149;51.094;17.002;2022-11-13T03:54:41;23.20;;;17.20;;
323;SDS011;149;51.094;17.002;2022-11-13T03:57:11;25.08;;;16.67;;
323;SDS011;149;51.094;17.002;2022-11-13T03:59:38;21.80;;;16.13;;
323;SDS011;149;51.094;17.002;2022-11-13T04:02:06;21.73;;;16.55;;
323;SDS011;149;51.094;17.002;2022-11-13T04:04:35;23.60;;;16.63;;
323;SDS011;149;51.094;17.002;2022-11-13T04:07:02;22.80;;;16.77;;
323;SDS011;149;51.094;17.002;2022-11-13T04:09:31;21.75;;;16.15;;
323;SDS011;149;51.094;17.002;2022-11-13T04:11:57;26.73;;;16.88;;
323;SDS011;149;51.094;17.002;2022-11-13T04:14:28;23.25;;;15.90;;
323;SDS011;149;51.094;17.002;2022-11-13T04:16:55;28.45;;;18.48;;
323;SDS011;149;51.094;17.002;2022-11-13T04:19:22;34.33;;;18.35;;
323;SDS011;149;51.094;17.002;2022-11-13T04:21:49;20.92;;;15.50;;
323;SDS011;149;51.094;17.002;2022-11-13T04:24:16;26.05;;;17.42;;
323;SDS011;149;51.094;17.002;2022-11-13T04:26:43;25.13;;;17.23;;
323;SDS011;149;51.094;17.002;2022-11-13T04:29:10;23.88;;;16.67;;
323;SDS011;149;51.094;17.002;2022-11-13T04:31:37;23.15;;;16.35;;
323;SDS011;149;51.094;17.002;2022-11-13T04:34:04;29.02;;;18.33;;
323;SDS011;149;51.094;17.002;2022-11-13T04:36:30;31.27;;;20.75;;
323;SDS011;149;51.094;17.002;2022-11-13T04:39:00;25.83;;;18.05;;
323;SDS011;149;51.094;17.002;2022-11-13T04:41:32;25.80;;;17.60;;
323;SDS011;149;51.094;17.002;2022-11-13T04:44:20;25.98;;;18.27;;
323;SDS011;149;51.094;17.002;2022-11-13T04:46:47;27.35;;;17.90;;
323;SDS011;149;51.094;17.002;2022-11-13T04:49:15;27.50;;;17.88;;
323;SDS011;149;51.094;17.002;2022-11-13T04:51:42;24.48;;;19.45;;
323;SDS011;149;51.094;17.002;2022-11-13T04:54:10;25.42;;;17.75;;
323;SDS011;149;51.094;17.002;2022-11-13T04:56:37;23.30;;;17.05;;
323;SDS011;149;51.094;17.002;2022-11-13T04:59:07;26.00;;;16.80;;
323;SDS011;149;51.094;17.002;2022-11-13T05:01:36;24.15;;;15.88;;
323;SDS011;149;51.094;17.002;2022-11-13T05:04:03;28.50;;;20.20;;
323;SDS011;149;51.094;17.002;2022-11-13T05:06:33;29.08;;;18.95;;
323;SDS011;149;51.094;17.002;2022-11-13T05:08:59;26.35;;;18.63;;
323;SDS011;149;51.094;17.002;2022-11-13T05:11:28;27.05;;;19.77;;
323;SDS011;149;51.094;17.002;2022-11-13T05:13:57;29.83;;;18.48;;
323;SDS011;149;51.094;17.002;2022-11-13T05:16:29;28.65;;;19.35;;
323;SDS011;149;51.094;17.002;2022-11-13T05:18:57;35.13;;;21.75;;
323;SDS011;149;51.094;17.002;2022-11-13T05:21:24;25.60;;;18.67;;
323;SDS011;149;51.094;17.002;2022-11-13T05:23:51;26.95;;;18.33;;
323;SDS011;149;51.094;17.002;2022-11-13T05:26:19;28.42;;;19.30;;
323;SDS011;149;51.094;17.002;2022-11-13T05:28:46;31.30;;;18.75;;
323;SDS011;149;51.094;17.002;2022-11-13T05:31:15;27.30;;;20.45;;
323;SDS011;149;51.094;17.002;2022-11-13T05:33:43;26.40;;;19.83;;
323;SDS011;149;51.094;17.002;2022-11-13T05:36:10;30.63;;;20.65;;
323;SDS011;149;51.094;17.002;2022-11-13T05:38:40;25.42;;;19.30;;
323;SDS011;149;51.094;17.002;2022-11-13T05:41:09;31.33;;;21.20;;
323;SDS011;149;51.094;17.002;2022-11-13T05:43:38;32.42;;;21.20;;
323;SDS011;149;51.094;17.002;2022-11-13T05:46:08;35.95;;;21.20;;
323;SDS011;149;51.094;17.002;2022-11-13T05:48:40;35.17;;;20.52;;
323;SDS011;149;51.094;17.002;2022-11-13T05:51:14;30.77;;;20.13;;
323;SDS011;149;51.094;17.002;2022-11-13T05:53:50;35.33;;;22.83;;
323;SDS011;149;51.094;17.002;2022-11-13T05:56:20;29.85;;;19.67;;
323;SDS011;149;51.094;17.002;2022-11-13T05:58:51;25.50;;;19.95;;
323;SDS011;149;51.094;17.002;2022-11-13T06:01:23;29.95;;;20.58;;
323;SDS011;149;51.094;17.002;2022-11-13T06:04:02;32.75;;;22.90;;
323;SDS011;149;51.094;17.002;2022-11-13T06:06:32;32.00;;;22.92;;
323;SDS011;149;51.094;17.002;2022-11-13T06:09:04;32.22;;;22.08;;
323;SDS011;149;51.094;17.002;2022-11-13T06:11:33;33.10;;;22.65;;
323;SDS011;149;51.094;17.002;2022-11-13T06:14:01;36.38;;;22.48;;
323;SDS011;149;51.094;17.002;2022-11-13T06:16:34;34.28;;;21.90;;
323;SDS011;149;51.094;17.002;2022-11-13T06:19:03;39.35;;;25.90;;
323;SDS011;149;51.094;17.002;2022-11-13T06:21:32;32.28;;;21.83;;
323;SDS011;149;51.094;17.002;2022-11-13T06:24:02;31.85;;;22.73;;
323;SDS011;149;51.094;17.002;2022-11-13T06:26:32;39.63;;;24.75;;
323;SDS011;149;51.094;17.002;2022-11-13T06:29:00;40.08;;;26.23;;
323;SDS011;149;51.094;17.002;2022-11-13T06:31:30;38.20;;;25.67;;
323;SDS011;149;51.094;17.002;2022-11-13T06:33:59;41.85;;;28.33;;
323;SDS011;149;51.094;17.002;2022-11-13T06:36:27;41.05;;;24.98;;
323;SDS011;149;51.094;17.002;2022-11-13T06:38:56;41.00;;;29.25;;
323;SDS011;149;51.094;17.002;2022-11-13T06:41:25;45.00;;;27.05;;
323;SDS011;149;51.094;17.002;2022-11-13T06:43:55;45.35;;;29.30;;
323;SDS011;149;51.094;17.002;2022-11-13T06:46:28;39.88;;;29.58;;
323;SDS011;149;51.094;17.002;2022-11-13T06:48:56;40.13;;;26.85;;
323;SDS011;149;51.094;17.002;2022-11-13T06:51:24;40.30;;;29.65;;
323;SDS011;149;51.094;17.002;2022-11-13T06:53:54;41.20;;;29.27;;
323;SDS011;149;51.094;17.002;2022-11-13T06:56:22;49.40;;;33.88;;
323;SDS011;149;51.094;17.002;2022-11-13T06:58:52;45.47;;;30.90;;
323;SDS011;149;51.094;17.002;2022-11-13T07:01:22;43.22;;;31.60;;
323;SDS011;149;51.094;17.002;2022-11-13T07:03:53;47.20;;;31.45;;
323;SDS011;149;51.094;17.002;2022-11-13T07:06:21;46.10;;;32.25;;
323;SDS011;149;51.094;17.002;2022-11-13T07:08:49;44.08;;;31.30;;
323;SDS011;149;51.094;17.002;2022-11-13T07:11:21;48.42;;;32.60;;
323;SDS011;149;51.094;17.002;2022-11-13T07:13:49;47.03;;;31.35;;
323;SDS011;149;51.094;17.002;2022-11-13T07:16:16;45.85;;;29.83;;
323;SDS011;149;51.094;17.002;2022-11-13T07:18:52;40.22;;;29.90;;
323;SDS011;149;51.094;17.002;2022-11-13T07:21:20;43.15;;;29.95;;
323;SDS011;149;51.094;17.002;2022-11-13T07:23:48;47.80;;;31.90;;
323;SDS011;149;51.094;17.002;2022-11-13T07:26:16;41.55;;;27.55;;
323;SDS011;149;51.094;17.002;2022-11-13T07:28:44;42.78;;;28.77;;
323;SDS011;149;51.094;17.002;2022-11-13T07:31:12;47.80;;;30.92;;
323;SDS011;149;51.094;17.002;2022-11-13T07:33:41;52.17;;;27.55;;
323;SDS011;149;51.094;17.002;2022-11-13T07:36:09;45.28;;;30.05;;
323;SDS011;149;51.094;17.002;2022-11-13T07:38:39;48.53;;;29.17;;
323;SDS011;149;51.094;17.002;2022-11-13T07:41:09;47.90;;;28.45;;
323;SDS011;149;51.094;17.002;2022-11-13T07:43:38;41.17;;;28.15;;
323;SDS011;149;51.094;17.002;2022-11-13T07:46:05;41.60;;;28.95;;
323;SDS011;149;51.094;17.002;2022-11-13T07:48:32;45.05;;;27.60;;
323;SDS011;149;51.094;17.002;2022-11-13T07:51:00;44.33;;;27.65;;
323;SDS011;149;51.094;17.002;2022-11-13T07:53:28;40.42;;;26.75;;
323;SDS011;149;51.094;17.002;2022-11-13T07:55:58;41.20;;;24.58;;
323;SDS011;149;51.094;17.002;2022-11-13T07:58:27;36.47;;;25.70;;
323;SDS011;149;51.094;17.002;2022-11-13T08:01:03;32.95;;;23.98;;
323;SDS011;149;51.094;17.002;2022-11-13T08:03:31;39.50;;;26.30;;
323;SDS011;149;51.094;17.002;2022-11-13T08:06:00;40.88;;;26.40;;
323;SDS011;149;51.094;17.002;2022-11-13T08:08:31;35.40;;;26.67;;
323;SDS011;149;51.094;17.002;2022-11-13T08:11:08;34.78;;;26.95;;
323;SDS011;149;51.094;17.002;2022-11-13T08:13:35;35.92;;;23.25;;
323;SDS011;149;51.094;17.002;2022-11-13T08:16:04;36.15;;;23.80;;
323;SDS011;149;51.094;17.002;2022-11-13T08:21:17;41.15;;;26.02;;
323;SDS011;149;51.094;17.002;2022-11-13T08:23:48;44.08;;;26.42;;
323;SDS011;149;51.094;17.002;2022-11-13T08:26:37;40.53;;;26.70;;
323;SDS011;149;51.094;17.002;2022-11-13T08:29:06;42.05;;;25.75;;
323;SDS011;149;51.094;17.002;2022-11-13T08:31:34;43.13;;;26.67;;
323;SDS011;149;51.094;17.002;2022-11-13T08:34:02;42.22;;;23.75;;
323;SDS011;149;51.094;17.002;2022-11-13T08:36:30;36.58;;;24.23;;
323;SDS011;149;51.094;17.002;2022-11-13T08:39:01;34.05;;;23.35;;
323;SDS011;149;51.094;17.002;2022-11-13T08:41:28;42.17;;;26.45;;
323;SDS011;149;51.094;17.002;2022-11-13T08:43:57;42.72;;;25.85;;
323;SDS011;149;51.094;17.002;2022-11-13T08:46:26;39.38;;;25.50;;
323;SDS011;149;51.094;17.002;2022-11-13T08:48:55;34.58;;;22.83;;
323;SDS011;149;51.094;17.002;2022-11-13T08:51:22;38.03;;;25.42;;
323;SDS011;149;51.094;17.002;2022-11-13T08:53:49;35.17;;;24.20;;
323;SDS011;149;51.094;17.002;2022-11-13T08:56:17;33.80;;;26.85;;
323;SDS011;149;51.094;17.002;2022-11-13T08:58:45;43.03;;;24.23;;
323;SDS011;149;51.094;17.002;2022-11-13T09:01:14;45.13;;;25.73;;
323;SDS011;149;51.094;17.002;2022-11-13T09:03:42;40.38;;;23.30;;
323;SDS011;149;51.094;17.002;2022-11-13T09:06:09;39.15;;;25.98;;
323;SDS011;149;51.094;17.002;2022-11-13T09:08:38;44.97;;;26.85;;
323;SDS011;149;51.094;17.002;2022-11-13T09:11:06;37.25;;;24.23;;
323;SDS011;149;51.094;17.002;2022-11-13T09:13:56;37.63;;;26.40;;
323;SDS011;149;51.094;17.002;2022-11-13T09:16:23;41.90;;;27.60;;
323;SDS011;149;51.094;17.002;2022-11-13T09:18:51;42.03;;;28.98;;
323;SDS011;149;51.094;17.002;2022-11-13T09:21:20;43.80;;;27.30;;
323;SDS011;149;51.094;17.002;2022-11-13T09:23:47;45.03;;;30.63;;
323;SDS011;149;51.094;17.002;2022-11-13T09:26:16;45.42;;;30.15;;
323;SDS011;149;51.094;17.002;2022-11-13T09:28:46;39.92;;;26.90;;
323;SDS011;149;51.094;17.002;2022-11-13T09:31:13;42.08;;;30.95;;
323;SDS011;149;51.094;17.002;2022-11-13T09:33:47;44.08;;;28.70;;
323;SDS011;149;51.094;17.002;2022-11-13T09:36:15;42.67;;;26.50;;
323;SDS011;149;51.094;17.002;2022-11-13T09:38:42;52.92;;;31.02;;
323;SDS011;149;51.094;17.002;2022-11-13T09:41:18;48.38;;;30.98;;
323;SDS011;149;51.094;17.002;2022-11-13T09:43:50;42.97;;;32.05;;
323;SDS011;149;51.094;17.002;2022-11-13T09:46:35;52.17;;;31.75;;
323;SDS011;149;51.094;17.002;2022-11-13T09:49:16;46.53;;;31.45;;
323;SDS011;149;51.094;17.002;2022-11-13T09:51:49;52.92;;;32.63;;
323;SDS011;149;51.094;17.002;2022-11-13T09:54:20;49.97;;;31.60;;
323;SDS011;149;51.094;17.002;2022-11-13T09:59:37;53.70;;;32.40;;
323;SDS011;149;51.094;17.002;2022-11-13T10:02:12;50.97;;;29.75;;
323;SDS011;149;51.094;17.002;2022-11-13T10:08:30;57.60;;;37.00;;
323;SDS011;149;51.094;17.002;2022-11-13T10:13:23;52.67;;;33.70;;
323;SDS011;149;51.094;17.002;2022-11-13T10:16:24;49.15;;;31.63;;
323;SDS011;149;51.094;17.002;2022-11-13T10:19:08;54.03;;;31.63;;
323;SDS011;149;51.094;17.002;2022-11-13T10:21:50;47.80;;;30.23;;
323;SDS011;149;51.094;17.002;2022-11-13T10:24:44;58.05;;;30.48;;
323;SDS011;149;51.094;17.002;2022-11-13T10:27:14;47.70;;;28.45;;
323;SDS011;149;51.094;17.002;2022-11-13T10:29:42;44.80;;;30.10;;
323;SDS011;149;51.094;17.002;2022-11-13T10:40:51;57.00;;;32.45;;
323;SDS011;149;51.094;17.002;2022-11-13T10:45:54;47.88;;;32.65;;
323;SDS011;149;51.094;17.002;2022-11-13T10:48:25;58.13;;;32.17;;
323;SDS011;149;51.094;17.002;2022-11-13T10:51:31;52.50;;;34.35;;
323;SDS011;149;51.094;17.002;2022-11-13T10:53:55;51.45;;;31.85;;
323;SDS011;149;51.094;17.002;2022-11-13T10:56:31;55.35;;;33.03;;
323;SDS011;149;51.094;17.002;2022-11-13T11:01:40;54.17;;;32.95;;
323;SDS011;149;51.094;17.002;2022-11-13T11:06:45;56.20;;;32.47;;
323;SDS011;149;51.094;17.002;2022-11-13T11:09:35;53.53;;;33.65;;
323;SDS011;149;51.094;17.002;2022-11-13T11:17:22;51.83;;;34.35;;
323;SDS011;149;51.094;17.002;2022-11-13T11:20:15;63.67;;;35.50;;
323;SDS011;149;51.094;17.002;2022-11-13T11:25:59;52.60;;;34.97;;
323;SDS011;149;51.094;17.002;2022-11-13T11:28:45;52.08;;;32.22;;
323;SDS011;149;51.094;17.002;2022-11-13T11:31:19;54.63;;;31.90;;
323;SDS011;149;51.094;17.002;2022-11-13T11:34:11;56.80;;;34.47;;
323;SDS011;149;51.094;17.002;2022-11-13T11:45:25;64.82;;;39.97;;
323;SDS011;149;51.094;17.002;2022-11-13T11:47:56;53.72;;;33.88;;
323;SDS011;149;51.094;17.002;2022-11-13T11:50:38;62.58;;;37.50;;
323;SDS011;149;51.094;17.002;2022-11-13T11:53:13;54.90;;;36.35;;
323;SDS011;149;51.094;17.002;2022-11-13T12:04:26;65.60;;;33.00;;
323;SDS011;149;51.094;17.002;2022-11-13T12:10:03;63.03;;;32.50;;
323;SDS011;149;51.094;17.002;2022-11-13T12:12:54;59.13;;;34.35;;
323;SDS011;149;51.094;17.002;2022-11-13T12:15:25;59.22;;;34.85;;
323;SDS011;149;51.094;17.002;2022-11-13T12:18:09;53.58;;;31.73;;
323;SDS011;149;51.094;17.002;2022-11-13T12:26:29;67.32;;;37.88;;
323;SDS011;149;51.094;17.002;2022-11-13T12:34:56;76.97;;;39.40;;
323;SDS011;149;51.094;17.002;2022-11-13T12:37:49;75.07;;;42.08;;
323;SDS011;149;51.094;17.002;2022-11-13T12:43:18;68.57;;;38.72;;
323;SDS011;149;51.094;17.002;2022-11-13T12:46:10;70.60;;;40.03;;
323;SDS011;149;51.094;17.002;2022-11-13T12:48:46;77.40;;;40.22;;
323;SDS011;149;51.094;17.002;2022-11-13T12:51:14;67.65;;;39.88;;
323;SDS011;149;51.094;17.002;2022-11-13T12:53:52;84.25;;;45.70;;
323;SDS011;149;51.094;17.002;2022-11-13T12:59:02;79.93;;;42.92;;
323;SDS011;149;51.094;17.002;2022-11-13T13:15:54;80.90;;;41.03;;
323;SDS011;149;51.094;17.002;2022-11-13T13:18:29;90.35;;;42.20;;
323;SDS011;149;51.094;17.002;2022-11-13T13:26:03;70.90;;;37.40;;
323;SDS011;149;51.094;17.002;2022-11-13T13:28:30;71.68;;;42.20;;
323;SDS011;149;51.094;17.002;2022-11-13T13:31:12;73.63;;;38.95;;
323;SDS011;149;51.094;17.002;2022-11-13T13:36:41;75.95;;;44.85;;
323;SDS011;149;51.094;17.002;2022-11-13T13:44:58;90.50;;;48.47;;
323;SDS011;149;51.094;17.002;2022-11-13T13:47:51;85.10;;;44.30;;
323;SDS011;149;51.094;17.002;2022-11-13T13:50:23;84.60;;;46.47;;
323;SDS011;149;51.094;17.002;2022-11-13T13:52:53;78.30;;;43.25;;
323;SDS011;149;51.094;17.002;2022-11-13T13:55:35;83.70;;;45.70;;
323;SDS011;149;51.094;17.002;2022-11-13T13:58:07;74.03;;;42.58;;
323;SDS011;149;51.094;17.002;2022-11-13T14:00:39;77.53;;;44.03;;
323;SDS011;149;51.094;17.002;2022-11-13T14:03:26;72.10;;;38.55;;
323;SDS011;149;51.094;17.002;2022-11-13T14:05:55;65.75;;;39.50;;
323;SDS011;149;51.094;17.002;2022-11-13T14:08:35;86.38;;;42.17;;
323;SDS011;149;51.094;17.002;2022-11-13T14:11:14;80.22;;;38.10;;
323;SDS011;149;51.094;17.002;2022-11-13T14:13:46;70.13;;;37.90;;
323;SDS011;149;51.094;17.002;2022-11-13T14:16:13;76.72;;;40.15;;
323;SDS011;149;51.094;17.002;2022-11-13T14:18:40;78.05;;;40.85;;
323;SDS011;149;51.094;17.002;2022-11-13T14:21:10;77.32;;;40.63;;
323;SDS011;149;51.094;17.002;2022-11-13T14:23:49;73.60;;;41.05;;
323;SDS011;149;51.094;17.002;2022-11-13T14:26:17;70.35;;;41.55;;
323;SDS011;149;51.094;17.002;2022-11-13T14:28:49;68.72;;;40.30;;
323;SDS011;149;51.094;17.002;2022-11-13T14:31:24;71.38;;;40.70;;
323;SDS011;149;51.094;17.002;2022-11-13T14:34:02;72.75;;;42.95;;
323;SDS011;149;51.094;17.002;2022-11-13T14:36:35;84.85;;;44.15;;
323;SDS011;149;51.094;17.002;2022-11-13T14:39:03;67.68;;;38.65;;
323;SDS011;149;51.094;17.002;2022-11-13T14:41:32;67.65;;;38.78;;
323;SDS011;149;51.094;17.002;2022-11-13T14:44:04;66.32;;;38.70;;
323;SDS011;149;51.094;17.002;2022-11-13T14:46:38;68.25;;;36.33;;
323;SDS011;149;51.094;17.002;2022-11-13T14:49:24;74.57;;;40.92;;
323;SDS011;149;51.094;17.002;2022-11-13T14:51:56;69.53;;;38.08;;
323;SDS011;149;51.094;17.002;2022-11-13T14:54:34;81.68;;;42.40;;
323;SDS011;149;51.094;17.002;2022-11-13T14:57:22;66.40;;;37.45;;
323;SDS011;149;51.094;17.002;2022-11-13T14:59:49;70.32;;;39.60;;
323;SDS011;149;51.094;17.002;2022-11-13T15:02:16;68.60;;;41.33;;
323;SDS011;149;51.094;17.002;2022-11-13T15:04:46;76.40;;;40.97;;
323;SDS011;149;51.094;17.002;2022-11-13T15:07:18;71.07;;;43.53;;
323;SDS011;149;51.094;17.002;2022-11-13T15:09:49;72.82;;;40.90;;
323;SDS011;149;51.094;17.002;2022-11-13T15:12:16;88.07;;;44.35;;
323;SDS011;149;51.094;17.002;2022-11-13T15:14:43;86.63;;;45.25;;
323;SDS011;149;51.094;17.002;2022-11-13T15:17:14;77.32;;;42.75;;
323;SDS011;149;51.094;17.002;2022-11-13T15:19:44;69.65;;;41.47;;
323;SDS011;149;51.094;17.002;2022-11-13T15:22:15;80.03;;;46.20;;
323;SDS011;149;51.094;17.002;2022-11-13T15:24:57;77.78;;;44.17;;
323;SDS011;149;51.094;17.002;2022-11-13T15:27:24;82.63;;;45.85;;
323;SDS011;149;51.094;17.002;2022-11-13T15:29:51;85.65;;;43.20;;
323;SDS011;149;51.094;17.002;2022-11-13T15:32:19;83.82;;;45.72;;
323;SDS011;149;51.094;17.002;2022-11-13T15:34:47;78.95;;;46.78;;
323;SDS011;149;51.094;17.002;2022-11-13T15:37:14;89.47;;;46.90;;
323;SDS011;149;51.094;17.002;2022-11-13T15:39:42;80.35;;;47.40;;
323;SDS011;149;51.094;17.002;2022-11-13T15:42:11;75.47;;;44.95;;
323;SDS011;149;51.094;17.002;2022-11-13T15:44:40;87.60;;;48.75;;
323;SDS011;149;51.094;17.002;2022-11-13T15:50:03;87.82;;;52.10;;
323;SDS011;149;51.094;17.002;2022-11-13T15:52:43;93.80;;;49.88;;
323;SDS011;149;51.094;17.002;2022-11-13T15:55:18;94.15;;;50.38;;
323;SDS011;149;51.094;17.002;2022-11-13T15:57:59;91.28;;;53.78;;
323;SDS011;149;51.094;17.002;2022-11-13T16:00:28;91.18;;;51.75;;
323;SDS011;149;51.094;17.002;2022-11-13T16:03:01;88.45;;;54.60;;
323;SDS011;149;51.094;17.002;2022-11-13T16:05:37;92.93;;;52.75;;
323;SDS011;149;51.094;17.002;2022-11-13T16:08:14;100.85;;;50.75;;
323;SDS011;149;51.094;17.002;2022-11-13T16:10:53;107.10;;;52.83;;
323;SDS011;149;51.094;17.002;2022-11-13T16:13:23;99.35;;;52.20;;
323;SDS011;149;51.094;17.002;2022-11-13T16:15:57;97.90;;;51.08;;
323;SDS011;149;51.094;17.002;2022-11-13T16:18:32;109.13;;;59.67;;
323;SDS011;149;51.094;17.002;2022-11-13T16:21:19;102.82;;;54.83;;
323;SDS011;149;51.094;17.002;2022-11-13T16:24:05;100.10;;;56.38;;
323;SDS011;149;51.094;17.002;2022-11-13T16:26:43;98.50;;;55.58;;
323;SDS011;149;51.094;17.002;2022-11-13T16:29:23;98.20;;;53.03;;
323;SDS011;149;51.094;17.002;2022-11-13T16:32:28;88.38;;;55.00;;
323;SDS011;149;51.094;17.002;2022-11-13T16:39:37;104.57;;;54.10;;
323;SDS011;149;51.094;17.002;2022-11-13T16:42:07;109.72;;;55.83;;
323;SDS011;149;51.094;17.002;2022-11-13T16:44:36;104.45;;;53.78;;
323;SDS011;149;51.094;17.002;2022-11-13T16:47:22;107.68;;;55.40;;
323;SDS011;149;51.094;17.002;2022-11-13T16:49:53;102.68;;;53.50;;
323;SDS011;149;51.094;17.002;2022-11-13T16:52:21;115.03;;;62.50;;
323;SDS011;149;51.094;17.002;2022-11-13T16:54:51;117.30;;;58.33;;
323;SDS011;149;51.094;17.002;2022-11-13T16:57:33;112.38;;;57.70;;
323;SDS011;149;51.094;17.002;2022-11-13T17:00:12;104.28;;;57.22;;
323;SDS011;149;51.094;17.002;2022-11-13T17:02:42;106.93;;;59.13;;
323;SDS011;149;51.094;17.002;2022-11-13T17:05:12;109.50;;;54.50;;
323;SDS011;149;51.094;17.002;2022-11-13T17:08:00;110.38;;;58.22;;
323;SDS011;149;51.094;17.002;2022-11-13T17:11:18;111.53;;;54.80;;
323;SDS011;149;51.094;17.002;2022-11-13T17:13:52;110.63;;;58.45;;
323;SDS011;149;51.094;17.002;2022-11-13T17:16:58;122.85;;;58.47;;
323;SDS011;149;51.094;17.002;2022-11-13T17:19:47;108.40;;;54.60;;
323;SDS011;149;51.094;17.002;2022-11-13T17:25:59;110.82;;;60.97;;
323;SDS011;149;51.094;17.002;2022-11-13T17:28:37;103.85;;;60.65;;